Ocean City, New Jersey
Current Conditions -  °F | °C
As of 7:54 AM on Thursday 23 Oct 2014 (Local Time) from KACY Reporting Station
Overcast Overcast  
Wind Chill: 50°   Ceiling: 1900
Heat Index: 50°   Visibility: 10mi
Dew Point: 49°   Wind: 16mph
Humidity: 96%   Direction: 320°NW
Pressure: 29.72"   Gusts: NA
Location:  39.28°N, 74.57°W
Report Text: KACY 231154Z 32014KT 10SM BKN019 OVC024 10/09 A2972 RMK AO2 RAB1059E47 SLP062 P0002 60008 70045 T01000094 10106 20100 51006
Loading
Personal Weather Stations






























Interactive Weather Map
Tropical Storm Tracking
New forecast layout! Learn more

10-Day Weather Forecast

Advertisements
Track Severe Weather on mobile